KNXP

Twentynine Palms Self Airport

Twentynine Palms, California, USA
METAR KNXP 180156Z 21010KT 10SM BKN060 BKN100 BKN200 36/14 A3003 RMK AO2 SLP128 T03560144 PNO $
Observed Flight Rules
Aug-18 @ 01:56 UTC (32 minutes ago) Visual Flight Rules
Wind Visibility Clouds
210° at 10 knots 10 miles
  • Broken at 6,000' AGL
  • Broken at 10,000' AGL
  • Broken at 20,000' AGL
Temperatures Readings
Current 36°C / 97°F
Dewpoint 14°C / 57°F
Humidity 27%
Altimeter 30.03" Hg
Pressure 1012.8 hPa
Elevation 626
METAR KNXP 180156Z 21010KT 10SM BKN060 BKN100 BKN200 36/14 A3003 RMK AO2 SLP128 T03560144 PNO $
Observed Flight Rules
Aug-18 @ 01:56 UTC
(32 minutes ago)
VFR
Wind Visibility
210° at 10 knots 10 miles
Clouds
  • Broken at 6,000' AGL
  • Broken at 10,000' AGL
  • Broken at 20,000' AGL
Temperature Dewpoint
36°C / 97°F 14°C / 57°F
Humidity Altimeter Pressure
27% 30.03" Hg 1012.8 hPa